Time;durP1;ratioP1;P1;durP2;ratioP2;P2;SDS_P1;SDS_P2;PMS_P1;PMS_P2;Temp;Humidity;BMP_temperature;BMP_pressure;BME280_temperature;BME280_humidity;BME280_pressure;Samples;Min_cycle;Max_cycle;Signal;HPM_P1;HPM_P2
2023/03/14 00:00:07;;;;;;;;;;;;;;;12.99;86.50;98229.34;7357033;19;19915;-61
2023/03/14 00:02:35;;;;;;;;;;;;;;;13.00;87.94;98237.06;7355959;19;19925;-59
2023/03/14 00:05:06;;;;;;;;;;;;;;;12.95;88.39;98244.06;7361483;19;20289;-60
2023/03/14 00:07:35;;;;;;;;;;;;;;;12.92;89.41;98237.38;7365539;19;19937;-62
2023/03/14 00:10:04;;;;;;;;;;;;;;;12.90;90.39;98231.53;7367549;19;20215;-59
2023/03/14 00:12:31;;;;;;;;;;;;;;;12.89;91.28;98235.22;7364849;19;19974;-59
2023/03/14 00:15:00;;;;;;;;;;;;;;;12.88;91.55;98241.53;7363960;19;19931;-60
2023/03/14 00:17:27;;;;;;;;;;;;;;;12.88;91.92;98232.81;7364941;19;20119;-63
2023/03/14 00:19:54;;;;;;;;;;;;;;;12.85;92.16;98237.50;7362212;19;20451;-61
2023/03/14 00:22:21;;;;;;;;;;;;;;;12.83;92.60;98242.22;7364447;19;19922;-62
2023/03/14 00:24:48;;;;;;;;;;;;;;;12.82;92.76;98245.09;7361383;19;20536;-63
2023/03/14 00:27:15;;;;;;;;;;;;;;;12.82;93.08;98245.91;7363821;19;19970;-61
2023/03/14 00:29:43;;;;;;;;;;;;;;;12.79;93.28;98248.19;7363574;19;19982;-60
2023/03/14 00:32:10;;;;;;;;;;;;;;;12.77;93.58;98250.25;7361562;19;19927;-63
2023/03/14 00:34:37;;;;;;;;;;;;;;;12.76;94.35;98240.72;7359826;19;20432;-61
2023/03/14 00:37:04;;;;;;;;;;;;;;;12.72;94.08;98242.22;7364053;19;19927;-61
2023/03/14 00:39:31;;;;;;;;;;;;;;;12.71;94.75;98244.06;7361523;19;19919;-59
2023/03/14 00:41:58;;;;;;;;;;;;;;;12.66;94.27;98246.59;7364964;19;20222;-61
2023/03/14 00:44:25;;;;;;;;;;;;;;;12.63;94.62;98241.78;7361801;19;19918;-60
2023/03/14 00:46:53;;;;;;;;;;;;;;;12.60;95.02;98258.06;7362815;19;19922;-60
2023/03/14 00:49:20;;;;;;;;;;;;;;;12.56;95.28;98256.09;7360308;19;19934;-59
2023/03/14 00:51:47;;;;;;;;;;;;;;;12.55;95.70;98254.50;7363940;19;19922;-62
2023/03/14 00:54:14;;;;;;;;;;;;;;;12.56;96.40;98267.47;7357511;19;20368;-60
2023/03/14 00:56:41;;;;;;;;;;;;;;;12.61;97.37;98269.41;7362899;19;19918;-61
2023/03/14 00:59:08;;;;;;;;;;;;;;;12.60;97.48;98255.41;7360279;19;19925;-61
2023/03/14 01:01:36;;;;;;;;;;;;;;;12.60;97.83;98263.34;7364170;19;20230;-59
2023/03/14 01:04:04;;;;;;;;;;;;;;;12.63;98.00;98314.84;7362192;19;19970;-60
2023/03/14 01:06:31;;;;;;;;;;;;;;;12.62;98.27;98327.22;7362585;19;19930;-61
2023/03/14 01:08:59;;;;;;;;;;;;;;;12.58;96.79;98365.66;7360372;19;19919;-61
2023/03/14 01:11:27;;;;;;;;;;;;;;;12.44;94.51;98365.03;7362800;19;19922;-57
2023/03/14 01:13:54;;;;;;;;;;;;;;;12.32;93.10;98387.13;7362462;19;20252;-61
2023/03/14 01:16:22;;;;;;;;;;;;;;;12.19;91.08;98393.38;7362021;19;19926;-61
2023/03/14 01:18:50;;;;;;;;;;;;;;;12.02;89.84;98407.41;7360404;19;19950;-61
2023/03/14 01:21:17;;;;;;;;;;;;;;;11.87;89.44;98419.16;7361563;19;20424;-59
2023/03/14 01:23:45;;;;;;;;;;;;;;;11.64;87.56;98431.31;7356659;19;19997;-63
2023/03/14 01:26:13;;;;;;;;;;;;;;;11.44;86.95;98439.44;7364772;19;19929;-60
2023/03/14 01:28:41;;;;;;;;;;;;;;;11.32;88.36;98444.63;7361585;19;19990;-59
2023/03/14 01:31:09;;;;;;;;;;;;;;;11.26;88.96;98458.66;7363558;19;20295;-60
2023/03/14 01:33:37;;;;;;;;;;;;;;;11.20;88.91;98462.13;7359205;19;19923;-60
2023/03/14 01:36:04;;;;;;;;;;;;;;;11.07;87.71;98484.09;7362465;19;19919;-61
2023/03/14 01:38:32;;;;;;;;;;;;;;;10.96;85.68;98489.25;7358424;19;19937;-60
2023/03/14 01:41:00;;;;;;;;;;;;;;;10.88;86.52;98500.00;7358505;19;19994;-59
2023/03/14 01:43:27;;;;;;;;;;;;;;;10.79;86.98;98510.00;7360367;19;19922;-60
2023/03/14 01:45:55;;;;;;;;;;;;;;;10.71;86.23;98508.44;7360178;19;20018;-62
2023/03/14 01:48:22;;;;;;;;;;;;;;;10.64;86.48;98526.06;7359164;19;19926;-61
2023/03/14 01:50:49;;;;;;;;;;;;;;;10.59;85.57;98530.34;7358917;19;19979;-61
2023/03/14 01:53:21;;;;;;;;;;;;;;;10.57;85.37;98534.97;7358402;19;19986;-60
2023/03/14 01:55:49;;;;;;;;;;;;;;;10.53;85.79;98539.88;7359467;19;19919;-59
2023/03/14 01:58:16;;;;;;;;;;;;;;;10.50;86.04;98542.91;7361528;19;19923;-61
2023/03/14 02:00:43;;;;;;;;;;;;;;;10.49;86.14;98557.06;7359015;19;19922;-59
2023/03/14 02:03:14;;;;;;;;;;;;;;;10.48;86.97;98555.47;7362520;19;20348;-61
2023/03/14 02:05:41;;;;;;;;;;;;;;;10.46;87.60;98575.91;7358607;19;19959;-57
2023/03/14 02:08:11;;;;;;;;;;;;;;;10.46;86.51;98583.78;7359186;19;19922;-59
2023/03/14 02:10:41;;;;;;;;;;;;;;;10.46;87.14;98589.06;7360115;19;19931;-59
2023/03/14 02:13:08;;;;;;;;;;;;;;;10.44;87.48;98583.19;7359521;19;20292;-61
2023/03/14 02:15:35;;;;;;;;;;;;;;;10.43;86.65;98592.06;7359958;19;19919;-60
2023/03/14 02:18:03;;;;;;;;;;;;;;;10.44;86.20;98601.59;7362209;19;20499;-60
2023/03/14 02:20:31;;;;;;;;;;;;;;;10.42;85.76;98600.97;7360336;19;19929;-58
2023/03/14 02:22:58;;;;;;;;;;;;;;;10.42;86.32;98600.97;7357577;19;19922;-59
2023/03/14 02:25:33;;;;;;;;;;;;;;;10.40;86.18;98613.53;7358338;19;20473;-60
2023/03/14 02:28:01;;;;;;;;;;;;;;;10.40;85.85;98621.41;7361849;19;19911;-60
2023/03/14 02:30:30;;;;;;;;;;;;;;;10.40;86.55;98621.41;7358972;19;19929;-58
2023/03/14 02:33:00;;;;;;;;;;;;;;;10.39;86.15;98632.13;7361014;19;21772;-63
2023/03/14 02:35:29;;;;;;;;;;;;;;;10.31;83.99;98643.66;7357234;19;19914;-60
2023/03/14 02:38:00;;;;;;;;;;;;;;;10.23;81.94;98663.09;7358420;19;19934;-62
2023/03/14 02:40:27;;;;;;;;;;;;;;;10.18;79.78;98678.66;7357592;19;19922;-61
2023/03/14 02:42:54;;;;;;;;;;;;;;;10.12;78.30;98676.81;7359817;19;20009;-61
2023/03/14 02:45:21;;;;;;;;;;;;;;;10.08;78.89;98693.19;7359229;19;20172;-62
2023/03/14 02:47:52;;;;;;;;;;;;;;;9.96;76.69;98705.31;7360178;19;21084;-63
2023/03/14 02:50:21;;;;;;;;;;;;;;;9.86;73.45;98711.75;7358653;19;19915;-68
2023/03/14 02:52:48;;;;;;;;;;;;;;;9.84;73.46;98719.06;7356515;19;19945;-60
2023/03/14 02:55:19;;;;;;;;;;;;;;;9.76;73.03;98724.47;7356817;19;19945;-62
2023/03/14 02:57:46;;;;;;;;;;;;;;;9.67;71.17;98725.69;7358826;19;19919;-59
2023/03/14 03:00:14;;;;;;;;;;;;;;;9.63;71.24;98728.91;7357781;19;20166;-61
2023/03/14 03:02:41;;;;;;;;;;;;;;;9.55;70.17;98732.50;7360277;19;19927;-60
2023/03/14 03:05:09;;;;;;;;;;;;;;;9.53;70.55;98737.16;7358850;19;19926;-56
2023/03/14 03:07:35;;;;;;;;;;;;;;;9.50;72.41;98736.75;7359991;19;20351;-61
2023/03/14 03:10:03;;;;;;;;;;;;;;;9.46;71.91;98744.19;7354785;19;20271;-59
2023/03/14 03:12:30;;;;;;;;;;;;;;;9.46;74.03;98759.94;7358858;19;20244;-61
2023/03/14 03:14:56;;;;;;;;;;;;;;;9.43;73.72;98763.78;7359159;19;19919;-60
2023/03/14 03:17:23;;;;;;;;;;;;;;;9.41;73.79;98764.97;7359580;19;20247;-61
2023/03/14 03:19:50;;;;;;;;;;;;;;;9.44;74.76;98764.59;7360349;19;20248;-61
2023/03/14 03:22:17;;;;;;;;;;;;;;;9.43;74.50;98776.91;7359528;19;19923;-62
2023/03/14 03:24:44;;;;;;;;;;;;;;;9.41;74.59;98773.66;7357420;19;21510;-62
2023/03/14 03:27:11;;;;;;;;;;;;;;;9.39;75.92;98786.19;7352808;19;20209;-60
2023/03/14 03:29:38;;;;;;;;;;;;;;;9.39;75.65;98796.69;7356910;19;19930;-60
2023/03/14 03:32:05;;;;;;;;;;;;;;;9.40;75.29;98803.53;7359142;19;19919;-62
2023/03/14 03:34:32;;;;;;;;;;;;;;;9.35;74.60;98802.50;7359049;19;19919;-61
2023/03/14 03:36:59;;;;;;;;;;;;;;;9.33;76.64;98812.41;7361340;19;19922;-59
2023/03/14 03:39:26;;;;;;;;;;;;;;;9.30;77.41;98813.59;7359686;19;19915;-58
2023/03/14 03:41:52;;;;;;;;;;;;;;;9.28;77.27;98827.91;7365181;19;19933;-61
2023/03/14 03:44:19;;;;;;;;;;;;;;;9.24;77.52;98830.13;7365095;19;19919;-62
2023/03/14 03:46:46;;;;;;;;;;;;;;;9.21;77.61;98837.56;7365938;19;19941;-63
2023/03/14 03:49:13;;;;;;;;;;;;;;;9.19;77.64;98845.63;7363187;19;19929;-60
2023/03/14 03:51:40;;;;;;;;;;;;;;;9.19;77.48;98852.69;7364982;19;20355;-62
2023/03/14 03:54:07;;;;;;;;;;;;;;;9.18;77.56;98858.94;7360677;19;19922;-61
2023/03/14 03:56:34;;;;;;;;;;;;;;;9.15;77.07;98859.31;7366868;19;19927;-63
2023/03/14 03:59:01;;;;;;;;;;;;;;;9.14;77.06;98868.22;7361770;19;19986;-62
2023/03/14 04:01:29;;;;;;;;;;;;;;;9.10;76.27;98874.81;7362270;19;19918;-62
2023/03/14 04:03:56;;;;;;;;;;;;;;;9.05;74.97;98888.50;7361517;19;20348;-60
2023/03/14 04:06:23;;;;;;;;;;;;;;;9.01;73.84;98874.16;7366464;19;19931;-59
2023/03/14 04:08:50;;;;;;;;;;;;;;;8.97;73.29;98886.03;7363324;19;19922;-64
2023/03/14 04:11:17;;;;;;;;;;;;;;;8.92;72.69;98888.41;7363922;19;19938;-63
2023/03/14 04:13:44;;;;;;;;;;;;;;;8.85;70.32;98901.47;7362787;19;19914;-62
2023/03/14 04:16:15;;;;;;;;;;;;;;;8.82;68.87;98901.06;7365131;19;20309;-63
2023/03/14 04:18:45;;;;;;;;;;;;;;;8.78;68.30;98905.06;7361446;19;19930;-60
2023/03/14 04:21:12;;;;;;;;;;;;;;;8.75;68.90;98915.91;7358516;19;19919;-63
2023/03/14 04:23:39;;;;;;;;;;;;;;;8.74;69.79;98916.91;7360359;19;19946;-61
2023/03/14 04:26:06;;;;;;;;;;;;;;;8.75;69.84;98937.69;7365111;19;19929;-59
2023/03/14 04:28:33;;;;;;;;;;;;;;;8.76;69.21;98933.25;7364855;19;20029;-61
2023/03/14 04:31:06;;;;;;;;;;;;;;;8.77;70.30;98955.88;7364285;19;19942;-61
2023/03/14 04:33:33;;;;;;;;;;;;;;;8.78;71.16;98965.38;7360886;19;20037;-61
2023/03/14 04:35:59;;;;;;;;;;;;;;;8.78;71.29;98970.59;7364049;19;20363;-60
2023/03/14 04:38:26;;;;;;;;;;;;;;;8.76;70.92;98980.47;7361208;19;19930;-61
2023/03/14 04:40:53;;;;;;;;;;;;;;;8.74;71.59;98993.75;7363718;19;20011;-60
2023/03/14 04:43:21;;;;;;;;;;;;;;;8.72;72.15;98990.50;7363236;19;19930;-60
2023/03/14 04:45:48;;;;;;;;;;;;;;;8.68;71.87;98997.13;7361210;19;19923;-59
2023/03/14 04:48:15;;;;;;;;;;;;;;;8.64;72.63;99005.53;7362998;19;20297;-59
2023/03/14 04:50:42;;;;;;;;;;;;;;;8.62;71.18;99015.41;7361470;19;19929;-60
2023/03/14 04:53:08;;;;;;;;;;;;;;;8.58;71.46;99018.38;7360718;19;20241;-61
2023/03/14 04:55:35;;;;;;;;;;;;;;;8.56;71.04;99024.81;7362284;19;20189;-61
2023/03/14 04:58:02;;;;;;;;;;;;;;;8.56;71.73;99027.44;7362210;19;19958;-62
2023/03/14 05:00:29;;;;;;;;;;;;;;;8.58;71.22;99038.56;7361624;19;19926;-61
2023/03/14 05:02:56;;;;;;;;;;;;;;;8.57;71.58;99048.22;7363282;19;19922;-62
2023/03/14 05:05:24;;;;;;;;;;;;;;;8.60;72.39;99044.41;7362436;19;19919;-63
2023/03/14 05:07:50;;;;;;;;;;;;;;;8.64;71.90;99050.09;7363670;19;20411;-59
2023/03/14 05:10:18;;;;;;;;;;;;;;;8.66;71.89;99054.16;7361421;19;19979;-62
2023/03/14 05:12:45;;;;;;;;;;;;;;;8.66;71.43;99056.78;7360492;19;20091;-63
2023/03/14 05:15:12;;;;;;;;;;;;;;;8.68;71.09;99054.81;7362097;19;19918;-61
2023/03/14 05:17:38;;;;;;;;;;;;;;;8.68;71.01;99059.25;7363076;19;20450;-60
2023/03/14 05:22:36;;;;;;;;;;;;;;;8.67;70.50;99066.28;7361688;19;20356;-61
2023/03/14 05:25:03;;;;;;;;;;;;;;;8.74;71.35;99076.81;7360591;19;19922;-61
2023/03/14 05:27:30;;;;;;;;;;;;;;;8.77;69.56;99082.53;7362008;19;20569;-61
2023/03/14 05:29:56;;;;;;;;;;;;;;;8.84;69.61;99086.03;7362286;19;19907;-62
2023/03/14 05:32:23;;;;;;;;;;;;;;;8.85;69.45;99103.38;7363572;19;19926;-62
2023/03/14 05:34:50;;;;;;;;;;;;;;;8.83;69.25;99110.66;7362335;19;19914;-62
2023/03/14 05:37:17;;;;;;;;;;;;;;;8.85;69.20;99111.25;7364280;19;20375;-62
2023/03/14 05:39:45;;;;;;;;;;;;;;;8.83;68.33;99120.31;7361183;19;20648;-60
2023/03/14 05:42:13;;;;;;;;;;;;;;;8.79;67.83;99122.47;7362539;19;19937;-61
2023/03/14 05:44:40;;;;;;;;;;;;;;;8.80;68.31;99118.88;7364498;19;20438;-62
2023/03/14 05:47:07;;;;;;;;;;;;;;;8.78;68.08;99126.13;7362252;19;19937;-60
2023/03/14 05:49:33;;;;;;;;;;;;;;;8.75;68.38;99133.53;7360907;19;20026;-61
2023/03/14 05:52:00;;;;;;;;;;;;;;;8.75;67.77;99144.00;7360317;19;19922;-60
2023/03/14 05:54:27;;;;;;;;;;;;;;;8.73;65.83;99148.63;7360484;19;19953;-62
2023/03/14 05:56:54;;;;;;;;;;;;;;;8.74;67.41;99163.34;7360187;19;19923;-61
2023/03/14 05:59:21;;;;;;;;;;;;;;;8.74;67.18;99160.72;7358226;19;19922;-61
2023/03/14 06:01:48;;;;;;;;;;;;;;;8.72;67.01;99163.56;7359610;19;19923;-59
2023/03/14 06:04:15;;;;;;;;;;;;;;;8.68;66.27;99169.34;7360367;19;19926;-62
2023/03/14 06:06:42;;;;;;;;;;;;;;;8.69;67.20;99168.31;7358771;19;19927;-59
2023/03/14 06:09:09;;;;;;;;;;;;;;;8.72;66.79;99167.97;7359934;19;20751;-60
2023/03/14 06:11:36;;;;;;;;;;;;;;;8.76;65.67;99184.97;7362062;19;19923;-61
2023/03/14 06:14:02;;;;;;;;;;;;;;;8.80;66.90;99181.78;7359154;19;19926;-62
2023/03/14 06:16:29;;;;;;;;;;;;;;;8.82;65.88;99190.31;7362110;19;19919;-57
2023/03/14 06:18:56;;;;;;;;;;;;;;;8.83;66.92;99202.44;7356086;19;19911;-60
2023/03/14 06:21:23;;;;;;;;;;;;;;;8.83;67.39;99194.56;7359918;19;19929;-61
2023/03/14 06:23:50;;;;;;;;;;;;;;;8.86;66.83;99209.91;7357406;19;19936;-61
2023/03/14 06:26:17;;;;;;;;;;;;;;;8.85;65.25;99210.91;7362184;19;19938;-60
2023/03/14 06:28:44;;;;;;;;;;;;;;;8.86;66.78;99217.78;7357806;19;19919;-61
2023/03/14 06:31:11;;;;;;;;;;;;;;;8.87;66.14;99229.91;7360196;19;20347;-62
2023/03/14 06:33:38;;;;;;;;;;;;;;;8.86;66.09;99237.94;7360229;19;19951;-63
2023/03/14 06:36:06;;;;;;;;;;;;;;;8.88;66.43;99238.59;7361033;19;19915;-64
2023/03/14 06:38:33;;;;;;;;;;;;;;;8.91;65.81;99251.34;7360246;19;20261;-61
2023/03/14 06:41:03;;;;;;;;;;;;;;;8.91;66.19;99253.97;7360396;19;19926;-62
2023/03/14 06:43:30;;;;;;;;;;;;;;;8.93;66.01;99259.84;7363186;19;20536;-60
2023/03/14 06:45:56;;;;;;;;;;;;;;;8.93;66.17;99260.66;7360247;19;19930;-59
2023/03/14 06:48:23;;;;;;;;;;;;;;;8.93;66.87;99279.03;7357209;19;19998;-60
2023/03/14 06:50:50;;;;;;;;;;;;;;;8.95;67.28;99289.31;7359732;19;19929;-59
2023/03/14 06:53:17;;;;;;;;;;;;;;;8.98;66.53;99294.22;7357828;19;19960;-64
2023/03/14 06:55:45;;;;;;;;;;;;;;;8.99;65.67;99303.69;7359216;19;19926;-60
2023/03/14 06:58:12;;;;;;;;;;;;;;;9.00;65.83;99305.31;7359655;19;20280;-60
2023/03/14 07:00:39;;;;;;;;;;;;;;;9.04;66.93;99318.91;7359584;19;20210;-60
2023/03/14 07:03:06;;;;;;;;;;;;;;;9.05;66.32;99321.34;7360517;19;19930;-60
2023/03/14 07:05:33;;;;;;;;;;;;;;;9.07;66.15;99331.66;7359395;19;19923;-61
2023/03/14 07:08:00;;;;;;;;;;;;;;;9.11;66.89;99330.31;7358845;19;19929;-61
2023/03/14 07:10:27;;;;;;;;;;;;;;;9.11;66.36;99339.00;7358006;19;19922;-59
2023/03/14 07:12:54;;;;;;;;;;;;;;;9.12;66.02;99348.50;7358640;19;19929;-62
2023/03/14 07:15:21;;;;;;;;;;;;;;;9.16;66.71;99364.69;7357679;19;20290;-63
2023/03/14 07:17:49;;;;;;;;;;;;;;;9.20;67.50;99368.56;7359182;19;19926;-62
2023/03/14 07:20:16;;;;;;;;;;;;;;;9.21;66.82;99376.28;7357984;19;19930;-61
2023/03/14 07:22:43;;;;;;;;;;;;;;;9.24;67.09;99393.47;7355816;19;20304;-60
2023/03/14 07:25:11;;;;;;;;;;;;;;;9.20;66.82;99397.44;7358543;19;20348;-60
2023/03/14 07:27:38;;;;;;;;;;;;;;;9.17;67.03;99408.31;7359697;19;19922;-61
2023/03/14 07:30:06;;;;;;;;;;;;;;;9.15;66.66;99408.47;7356999;19;19929;-61
2023/03/14 07:32:33;;;;;;;;;;;;;;;9.13;68.24;99422.78;7357532;19;19926;-60
2023/03/14 07:35:01;;;;;;;;;;;;;;;9.09;68.25;99427.56;7357015;19;19922;-61
2023/03/14 07:37:29;;;;;;;;;;;;;;;9.00;68.83;99439.94;7358975;19;20170;-62
2023/03/14 07:39:58;;;;;;;;;;;;;;;8.97;70.50;99447.34;7357010;19;19929;-57
2023/03/14 07:42:25;;;;;;;;;;;;;;;8.93;71.45;99467.06;7359069;19;19982;-61
2023/03/14 07:44:52;;;;;;;;;;;;;;;8.86;72.31;99468.75;7361096;19;19934;-63
2023/03/14 07:47:19;;;;;;;;;;;;;;;8.81;74.45;99486.81;7358692;19;20669;-60
2023/03/14 07:49:46;;;;;;;;;;;;;;;8.80;76.18;99491.22;7355234;19;20012;-59
2023/03/14 07:52:13;;;;;;;;;;;;;;;8.79;76.06;99504.50;7357885;19;20625;-62
2023/03/14 07:54:40;;;;;;;;;;;;;;;8.78;77.16;99521.25;7356591;19;20247;-61
2023/03/14 07:57:07;;;;;;;;;;;;;;;8.73;77.53;99540.13;7358367;19;19919;-60
2023/03/14 07:59:35;;;;;;;;;;;;;;;8.68;76.59;99542.47;7358983;19;20010;-60
2023/03/14 08:02:04;;;;;;;;;;;;;;;8.62;77.45;99550.19;7353671;19;19926;-62
2023/03/14 08:04:32;;;;;;;;;;;;;;;8.53;77.51;99560.69;7359376;19;19918;-61
2023/03/14 08:06:59;;;;;;;;;;;;;;;8.44;78.82;99566.97;7357026;19;19925;-59
2023/03/14 08:09:28;;;;;;;;;;;;;;;8.45;80.00;99586.94;7355193;19;19966;-59
2023/03/14 08:12:00;;;;;;;;;;;;;;;8.36;79.33;99597.63;7356764;19;20215;-63
2023/03/14 08:14:28;;;;;;;;;;;;;;;8.32;81.14;99599.78;7358480;19;20507;-59
2023/03/14 08:16:56;;;;;;;;;;;;;;;8.30;81.50;99614.84;7360177;19;19927;-59
2023/03/14 08:19:24;;;;;;;;;;;;;;;8.28;82.22;99615.97;7358381;19;19919;-60
2023/03/14 08:21:56;;;;;;;;;;;;;;;8.24;81.94;99625.97;7355920;19;21094;-61
2023/03/14 08:24:23;;;;;;;;;;;;;;;8.24;82.02;99648.72;7354914;19;19939;-62
2023/03/14 08:26:50;;;;;;;;;;;;;;;8.24;82.80;99644.31;7361571;19;19949;-62
2023/03/14 08:29:25;;;;;;;;;;;;;;;8.25;82.44;99653.81;7363166;19;19915;-59
2023/03/14 08:32:05;;;;;;;;;;;;;;;8.25;82.01;99672.16;7364440;19;19982;-62
2023/03/14 08:34:33;;;;;;;;;;;;;;;8.22;82.52;99680.34;7364792;19;19934;-58
2023/03/14 08:37:00;;;;;;;;;;;;;;;8.18;82.42;99693.94;7363810;19;19927;-63
2023/03/14 08:39:32;;;;;;;;;;;;;;;8.14;81.86;99702.13;7358374;19;19951;-62
2023/03/14 08:41:59;;;;;;;;;;;;;;;8.11;82.08;99705.09;7367151;19;19950;-60
2023/03/14 08:44:27;;;;;;;;;;;;;;;8.09;82.47;99712.28;7368847;19;20315;-61
2023/03/14 08:46:55;;;;;;;;;;;;;;;8.10;82.22;99729.63;7365278;19;20491;-62
2023/03/14 08:49:23;;;;;;;;;;;;;;;8.12;82.60;99742.59;7363954;19;19927;-58
2023/03/14 08:52:04;;;;;;;;;;;;;;;8.07;82.63;99748.31;7361136;19;19947;-61
2023/03/14 08:54:31;;;;;;;;;;;;;;;8.04;82.10;99761.72;7362242;19;20552;-61
2023/03/14 08:56:59;;;;;;;;;;;;;;;7.97;81.83;99776.47;7364205;19;20396;-62
2023/03/14 08:59:41;;;;;;;;;;;;;;;7.90;82.14;99774.63;7363940;19;19994;-61
2023/03/14 09:02:12;;;;;;;;;;;;;;;7.92;83.53;99786.59;7362798;19;19922;-61
2023/03/14 09:04:39;;;;;;;;;;;;;;;7.92;81.95;99793.63;7362027;19;19918;-61
2023/03/14 09:07:06;;;;;;;;;;;;;;;7.95;83.16;99807.22;7362307;19;19945;-61
2023/03/14 09:09:36;;;;;;;;;;;;;;;7.95;82.85;99815.06;7362115;19;20470;-60
2023/03/14 09:12:18;;;;;;;;;;;;;;;7.96;82.69;99818.53;7361951;19;19946;-62
2023/03/14 09:14:45;;;;;;;;;;;;;;;7.93;81.87;99834.53;7365831;19;19960;-57
2023/03/14 09:17:16;;;;;;;;;;;;;;;7.78;79.67;99851.84;7357794;19;19941;-60
2023/03/14 09:19:46;;;;;;;;;;;;;;;7.63;81.02;99859.50;7360973;19;19918;-63
2023/03/14 09:22:13;;;;;;;;;;;;;;;7.57;81.39;99871.41;7360891;19;20027;-61
2023/03/14 09:24:40;;;;;;;;;;;;;;;7.37;81.29;99880.47;7358443;19;19929;-63
2023/03/14 09:27:08;;;;;;;;;;;;;;;7.30;82.38;99890.75;7361488;19;20412;-60
2023/03/14 09:29:35;;;;;;;;;;;;;;;7.22;82.46;99903.78;7360090;19;19923;-58
2023/03/14 09:32:03;;;;;;;;;;;;;;;7.18;83.18;99899.84;7360370;19;20554;-60
2023/03/14 09:34:30;;;;;;;;;;;;;;;7.24;83.64;99908.84;7360504;19;20345;-59
2023/03/14 09:36:58;;;;;;;;;;;;;;;7.29;83.10;99923.13;7358273;19;19930;-60
2023/03/14 09:39:29;;;;;;;;;;;;;;;7.37;83.77;99937.22;7359562;19;19919;-59
2023/03/14 09:42:11;;;;;;;;;;;;;;;7.45;84.22;99945.94;7361459;19;19921;-58
2023/03/14 09:44:42;;;;;;;;;;;;;;;7.53;83.20;99953.84;7360732;19;19922;-60
2023/03/14 09:47:11;;;;;;;;;;;;;;;7.56;82.57;99957.97;7360283;19;19931;-60
2023/03/14 09:49:40;;;;;;;;;;;;;;;7.53;81.59;99966.09;7361659;19;20308;-62
2023/03/14 09:52:13;;;;;;;;;;;;;;;7.56;81.63;99971.03;7356455;19;19936;-61
2023/03/14 09:54:43;;;;;;;;;;;;;;;7.60;82.23;99981.03;7359754;19;19927;-61
2023/03/14 09:57:13;;;;;;;;;;;;;;;7.64;82.03;99990.22;7358469;19;19927;-61
2023/03/14 09:59:41;;;;;;;;;;;;;;;7.52;79.57;99995.84;7360548;19;19923;-57
2023/03/14 10:02:12;;;;;;;;;;;;;;;7.54;81.75;99999.97;7340106;19;20876;-60
2023/03/14 10:04:43;;;;;;;;;;;;;;;7.66;82.60;100017.09;7358424;19;19926;-60
2023/03/14 10:07:15;;;;;;;;;;;;;;;7.78;82.59;100025.47;7357018;19;19918;-59
2023/03/14 10:09:44;;;;;;;;;;;;;;;7.89;81.98;100022.59;7357480;19;20598;-60
2023/03/14 10:12:11;;;;;;;;;;;;;;;7.98;80.63;100029.50;7356234;19;19919;-61
2023/03/14 10:14:44;;;;;;;;;;;;;;;8.00;79.25;100024.94;7360816;19;19942;-62
2023/03/14 10:17:13;;;;;;;;;;;;;;;8.03;78.28;100026.44;7356062;19;19918;-60
2023/03/14 10:19:43;;;;;;;;;;;;;;;8.09;77.90;100037.09;7358518;19;19926;-61
2023/03/14 10:22:14;;;;;;;;;;;;;;;8.18;77.76;100039.78;7355553;19;20011;-60
2023/03/14 10:24:45;;;;;;;;;;;;;;;8.26;78.65;100051.13;7355026;19;19923;-63
2023/03/14 10:27:18;;;;;;;;;;;;;;;8.35;78.59;100054.59;7357158;19;19914;-60
2023/03/14 10:29:48;;;;;;;;;;;;;;;8.41;77.43;100065.28;7359597;19;19930;-60
2023/03/14 10:32:20;;;;;;;;;;;;;;;8.47;75.02;100072.53;7360384;19;19942;-60
2023/03/14 10:35:03;;;;;;;;;;;;;;;8.56;75.27;100076.81;7361045;19;19918;-58
2023/03/14 10:37:31;;;;;;;;;;;;;;;8.65;75.22;100098.63;7358778;19;20403;-58
2023/03/14 10:40:05;;;;;;;;;;;;;;;8.72;73.72;100104.91;7359415;19;19923;-60
2023/03/14 10:42:34;;;;;;;;;;;;;;;8.76;72.92;100103.59;7360056;19;20239;-59
2023/03/14 10:45:04;;;;;;;;;;;;;;;8.84;72.58;100108.03;7359568;19;19919;-61
2023/03/14 10:47:32;;;;;;;;;;;;;;;8.94;73.19;100106.91;7357844;19;19980;-62
2023/03/14 10:50:02;;;;;;;;;;;;;;;9.02;73.72;100120.06;7358088;19;20392;-62
2023/03/14 10:52:31;;;;;;;;;;;;;;;9.13;73.10;100116.31;7359647;19;20296;-61
2023/03/14 10:55:18;;;;;;;;;;;;;;;9.29;71.94;100131.28;7358030;19;19922;-61
2023/03/14 10:57:45;;;;;;;;;;;;;;;9.39;70.07;100145.09;7360425;19;19929;-62
2023/03/14 11:00:14;;;;;;;;;;;;;;;9.46;70.92;100146.06;7360206;19;19915;-61
2023/03/14 11:02:43;;;;;;;;;;;;;;;9.59;73.09;100153.47;7356546;19;19922;-63
2023/03/14 11:05:12;;;;;;;;;;;;;;;9.66;70.14;100155.25;7357004;19;19994;-61
2023/03/14 11:07:40;;;;;;;;;;;;;;;9.70;68.25;100166.28;7358856;19;19949;-61
2023/03/14 11:10:10;;;;;;;;;;;;;;;9.73;68.41;100169.41;7356909;19;19935;-62
2023/03/14 11:12:37;;;;;;;;;;;;;;;9.75;68.47;100188.41;7359860;19;19919;-60
2023/03/14 11:15:09;;;;;;;;;;;;;;;9.78;68.14;100198.63;7358790;19;20230;-57
2023/03/14 11:17:41;;;;;;;;;;;;;;;9.82;67.90;100207.81;7360105;19;20308;-55
2023/03/14 11:20:09;;;;;;;;;;;;;;;9.80;66.02;100208.97;7357946;19;19950;-60
2023/03/14 11:22:39;;;;;;;;;;;;;;;9.73;66.10;100215.84;7356341;19;20952;-63
2023/03/14 11:25:06;;;;;;;;;;;;;;;9.69;66.43;100217.16;7355540;19;21692;-60
2023/03/14 11:27:36;;;;;;;;;;;;;;;9.61;65.40;100210.09;7356290;19;19915;-60
2023/03/14 11:30:07;;;;;;;;;;;;;;;9.59;66.62;100225.19;7359374;19;19915;-61
2023/03/14 11:32:36;;;;;;;;;;;;;;;9.59;67.22;100222.56;7359053;19;19915;-61
2023/03/14 11:35:07;;;;;;;;;;;;;;;9.54;66.80;100216.97;7359607;19;19978;-60
2023/03/14 11:37:41;;;;;;;;;;;;;;;9.54;66.15;100224.03;7355280;19;19927;-61
2023/03/14 11:40:14;;;;;;;;;;;;;;;9.57;66.09;100223.69;7355734;19;19933;-61
2023/03/14 11:42:42;;;;;;;;;;;;;;;9.61;66.83;100225.00;7355371;19;19997;-60
2023/03/14 11:45:15;;;;;;;;;;;;;;;9.68;66.74;100224.22;7356008;19;19926;-60
2023/03/14 11:47:44;;;;;;;;;;;;;;;9.77;66.11;100241.63;7358357;19;20758;-61
2023/03/14 11:50:16;;;;;;;;;;;;;;;9.85;64.01;100249.50;7356738;19;19937;-61
2023/03/14 11:52:47;;;;;;;;;;;;;;;9.92;61.82;100251.50;7355966;19;19941;-63
2023/03/14 11:55:15;;;;;;;;;;;;;;;9.93;61.80;100255.78;7357223;19;19918;-60
2023/03/14 11:57:42;;;;;;;;;;;;;;;9.98;62.43;100264.00;7358956;19;19919;-61
2023/03/14 12:00:12;;;;;;;;;;;;;;;10.00;63.16;100264.66;7360329;19;19915;-62
2023/03/14 12:02:42;;;;;;;;;;;;;;;10.03;63.63;100269.59;7366116;19;19927;-59
2023/03/14 12:05:16;;;;;;;;;;;;;;;10.01;61.72;100267.09;7365946;19;20008;-62
2023/03/14 12:07:56;;;;;;;;;;;;;;;10.03;60.86;100272.22;7363985;19;19939;-61
2023/03/14 12:10:24;;;;;;;;;;;;;;;10.07;60.67;100286.66;7362616;19;19970;-60
2023/03/14 12:12:51;;;;;;;;;;;;;;;10.11;61.63;100293.22;7367022;19;19949;-62
2023/03/14 12:15:20;;;;;;;;;;;;;;;10.17;61.04;100290.00;7366072;19;19919;-61
2023/03/14 12:17:53;;;;;;;;;;;;;;;10.25;61.29;100282.13;7350255;19;19930;-62
2023/03/14 12:20:23;;;;;;;;;;;;;;;10.43;61.72;100290.66;7361803;19;19957;-61
2023/03/14 12:22:53;;;;;;;;;;;;;;;10.46;56.79;100300.03;7362067;19;20544;-63
2023/03/14 12:25:22;;;;;;;;;;;;;;;10.43;56.41;100298.53;7361809;19;19919;-62
2023/03/14 12:27:53;;;;;;;;;;;;;;;10.35;55.49;100303.00;7356519;19;19923;-60
2023/03/14 12:30:25;;;;;;;;;;;;;;;10.37;56.01;100308.88;7348577;19;19915;-61
2023/03/14 12:32:55;;;;;;;;;;;;;;;10.49;56.29;100311.03;7350751;19;20612;-58
2023/03/14 12:35:31;;;;;;;;;;;;;;;10.60;56.89;100310.72;7346817;19;19915;-62
2023/03/14 12:38:01;;;;;;;;;;;;;;;10.70;54.58;100308.72;7365383;19;19930;-60
2023/03/14 12:40:31;;;;;;;;;;;;;;;10.77;51.82;100315.97;7365186;19;19922;-63
2023/03/14 12:43:00;;;;;;;;;;;;;;;10.76;51.17;100319.56;7363371;19;19957;-62
2023/03/14 12:45:30;;;;;;;;;;;;;;;10.75;52.61;100313.47;7358701;19;19922;-62
2023/03/14 12:48:01;;;;;;;;;;;;;;;10.73;52.46;100323.34;7364659;19;20347;-61
2023/03/14 12:50:31;;;;;;;;;;;;;;;10.77;51.14;100321.22;7365757;19;19923;-62
2023/03/14 12:53:01;;;;;;;;;;;;;;;10.80;53.60;100331.41;7361484;19;20001;-60
2023/03/14 12:55:35;;;;;;;;;;;;;;;10.85;53.50;100332.56;7361540;19;19922;-61
2023/03/14 12:58:06;;;;;;;;;;;;;;;10.83;53.36;100326.63;7355073;19;20422;-62
2023/03/14 13:00:34;;;;;;;;;;;;;;;10.78;52.82;100320.22;7356407;19;19923;-61